Smithfield, PA (15478)

11:51 PM EDT on May 29, 2015 (GMT -0400)
Fairchance/Cheat Lake | | Change Station
CLOSE
Current Station
Personal Weather Station
Location: Morgantown, WV
Elevation: 1080 ft
Nearby Weather Stations

Elev 1080 ft 39.72 °N, 79.81 °W | Updated 50 seconds ago

Partly Cloudy
Partly Cloudy
71.1 °F
Feels Like 71 °F
N
0.0
Wind Variable Wind from North
Gusts 0.0 mph

Today
High -- | Low -- °F
--% Chance of Precip.
Yesterday
High -- | Low -- °F
Precip. -- in
5:54 AM 8:38 PM
Waxing Gibbous, 88% visible
Pressure 30.14 in
Visibility 10.0 miles
Clouds Mostly Cloudy 10000 ft
Overcast 12000 ft
Heat Index 71 °F
Dew Point 65 °F
Humidity 82%
Rainfall 0.05 in
Snow Depth Not available.
UV 0 out of 12
Pollen 8.10 out of 12
Air Quality Not available.
Flu Activity Sporadic
METAR KMGW 300253Z 14004KT 10SM BKN100 OVC120 22/16 A3017 RMK AO2 SLP206 T02220161 51004

More Conditions Fewer Conditions

Pressure 30.14 in
Visibility 10.0 miles
Clouds Mostly Cloudy 10000 ft
Overcast 12000 ft
Heat Index 71 °F
Dew Point 65 °F
Humidity 82%
Rainfall 0.05 in
Snow Depth Not available.
UV 0 out of 12
Pollen 8.10 out of 12
Air Quality Not available.
Flu Activity Sporadic
METAR KMGW 300253Z 14004KT 10SM BKN100 OVC120 22/16 A3017 RMK AO2 SLP206 T02220161 51004

More Conditions Fewer Conditions

10-Day Weather Forecast

Almanac

Astronomy

May. 29, 2015 Rise Set
Actual Time
Civil Twilight
Nautical Twilight
Astronomical Twilight
Moon
Length of Visible Light
Length of Day
Tomorrow will be .
, % of the Moon is Illuminated

Today's Extremes

State Highs State Lows

Community

WunderPhotos

Upload Photos

1,825,441 photos uploaded!

WunderBlogs® & News

Nearby

Air Quality

  Air Quality AQ Index Pollutant
Not available.

Snow Depth

Station Depth Elevation

Earthquake Activity

City Distance Mag. Time & Date
Minimum magnitude displayed is 2.5.

Coastal Water Temperatures

Place Temperature

Stations

Nearby Weather Stations

Station Location Temp. Windchill Dew Point Humidity Wind Precip. Elev Updated Type